sensor_id;sensor_type;location;lat;lon;timestamp;pressure;altitude;pressure_sealevel;temperature;humidity
17525;BME280;40431;52.198;9.902;2023-02-24T00:01:12;100441.34;;;4.39;100.00
17525;BME280;40431;52.198;9.902;2023-02-24T00:03:47;100442.34;;;4.36;100.00
17525;BME280;40431;52.198;9.902;2023-02-24T00:06:14;100436.75;;;4.42;100.00
17525;BME280;40431;52.198;9.902;2023-02-24T00:08:41;100434.25;;;4.38;100.00
17525;BME280;40431;52.198;9.902;2023-02-24T00:11:09;100429.88;;;4.35;100.00
17525;BME280;40431;52.198;9.902;2023-02-24T00:13:37;100428.00;;;4.37;100.00
17525;BME280;40431;52.198;9.902;2023-02-24T00:16:04;100429.75;;;4.38;100.00
17525;BME280;40431;52.198;9.902;2023-02-24T00:18:32;100423.56;;;4.36;100.00
17525;BME280;40431;52.198;9.902;2023-02-24T00:21:05;100422.75;;;4.34;100.00
17525;BME280;40431;52.198;9.902;2023-02-24T00:23:34;100421.06;;;4.31;100.00
17525;BME280;40431;52.198;9.902;2023-02-24T00:26:03;100420.13;;;4.32;100.00
17525;BME280;40431;52.198;9.902;2023-02-24T00:28:29;100412.25;;;4.28;100.00
17525;BME280;40431;52.198;9.902;2023-02-24T00:31:00;100407.69;;;4.30;100.00
17525;BME280;40431;52.198;9.902;2023-02-24T00:33:27;100405.81;;;4.32;100.00
17525;BME280;40431;52.198;9.902;2023-02-24T00:36:03;100403.03;;;4.35;100.00
17525;BME280;40431;52.198;9.902;2023-02-24T00:38:30;100394.91;;;4.37;100.00
17525;BME280;40431;52.198;9.902;2023-02-24T00:41:00;100387.91;;;4.32;100.00
17525;BME280;40431;52.198;9.902;2023-02-24T00:43:28;100383.53;;;4.30;100.00
17525;BME280;40431;52.198;9.902;2023-02-24T00:45:55;100385.41;;;4.28;100.00
17525;BME280;40431;52.198;9.902;2023-02-24T00:48:21;100379.09;;;4.29;100.00
17525;BME280;40431;52.198;9.902;2023-02-24T00:50:53;100380.38;;;4.18;100.00
17525;BME280;40431;52.198;9.902;2023-02-24T00:53:20;100385.75;;;4.18;100.00
17525;BME280;40431;52.198;9.902;2023-02-24T00:55:46;100375.25;;;4.12;100.00
17525;BME280;40431;52.198;9.902;2023-02-24T00:58:13;100380.56;;;4.14;100.00
17525;BME280;40431;52.198;9.902;2023-02-24T01:00:41;100376.88;;;4.16;100.00
17525;BME280;40431;52.198;9.902;2023-02-24T01:03:08;100370.81;;;4.11;100.00
17525;BME280;40431;52.198;9.902;2023-02-24T01:05:35;100369.28;;;4.04;100.00
17525;BME280;40431;52.198;9.902;2023-02-24T01:08:02;100364.25;;;3.95;100.00
17525;BME280;40431;52.198;9.902;2023-02-24T01:10:28;100362.47;;;3.95;100.00
17525;BME280;40431;52.198;9.902;2023-02-24T01:12:55;100362.47;;;3.95;100.00
17525;BME280;40431;52.198;9.902;2023-02-24T01:15:21;100359.72;;;3.97;100.00
17525;BME280;40431;52.198;9.902;2023-02-24T01:17:49;100358.88;;;3.95;100.00
17525;BME280;40431;52.198;9.902;2023-02-24T01:20:15;100367.06;;;3.92;100.00
17525;BME280;40431;52.198;9.902;2023-02-24T01:22:45;100348.34;;;3.90;100.00
17525;BME280;40431;52.198;9.902;2023-02-24T01:25:11;100353.81;;;3.87;100.00
17525;BME280;40431;52.198;9.902;2023-02-24T01:27:38;100350.09;;;3.91;100.00
17525;BME280;40431;52.198;9.902;2023-02-24T01:30:06;100342.44;;;3.80;100.00
17525;BME280;40431;52.198;9.902;2023-02-24T01:32:38;100348.47;;;3.87;100.00
17525;BME280;40431;52.198;9.902;2023-02-24T01:35:06;100344.28;;;3.78;100.00
17525;BME280;40431;52.198;9.902;2023-02-24T01:37:33;100343.56;;;3.73;100.00
17525;BME280;40431;52.198;9.902;2023-02-24T01:39:59;100334.56;;;3.76;100.00
17525;BME280;40431;52.198;9.902;2023-02-24T01:42:35;100331.94;;;3.74;100.00
17525;BME280;40431;52.198;9.902;2023-02-24T01:45:19;100327.28;;;3.79;100.00
17525;BME280;40431;52.198;9.902;2023-02-24T01:47:47;100326.22;;;3.83;100.00
17525;BME280;40431;52.198;9.902;2023-02-24T01:50:17;100325.41;;;3.81;100.00
17525;BME280;40431;52.198;9.902;2023-02-24T01:52:46;100321.66;;;3.85;100.00
17525;BME280;40431;52.198;9.902;2023-02-24T01:55:17;100319.75;;;3.89;100.00
17525;BME280;40431;52.198;9.902;2023-02-24T01:57:47;100313.63;;;3.85;100.00
17525;BME280;40431;52.198;9.902;2023-02-24T02:00:16;100314.56;;;3.84;100.00
17525;BME280;40431;52.198;9.902;2023-02-24T02:03:08;100305.53;;;3.87;100.00
17525;BME280;40431;52.198;9.902;2023-02-24T02:05:38;100300.13;;;3.89;100.00
17525;BME280;40431;52.198;9.902;2023-02-24T02:08:07;100296.53;;;3.88;100.00
17525;BME280;40431;52.198;9.902;2023-02-24T02:10:34;100300.00;;;3.92;100.00
17525;BME280;40431;52.198;9.902;2023-02-24T02:13:03;100293.00;;;3.88;100.00
17525;BME280;40431;52.198;9.902;2023-02-24T02:15:34;100295.78;;;3.84;100.00
17525;BME280;40431;52.198;9.902;2023-02-24T02:18:10;100284.53;;;3.75;100.00
17525;BME280;40431;52.198;9.902;2023-02-24T02:20:58;100271.09;;;3.76;100.00
17525;BME280;40431;52.198;9.902;2023-02-24T02:23:56;100279.16;;;3.75;100.00
17525;BME280;40431;52.198;9.902;2023-02-24T02:26:48;100277.31;;;3.77;100.00
17525;BME280;40431;52.198;9.902;2023-02-24T02:29:50;100264.75;;;3.77;100.00
17525;BME280;40431;52.198;9.902;2023-02-24T02:32:42;100268.28;;;3.79;100.00
17525;BME280;40431;52.198;9.902;2023-02-24T02:35:19;100262.78;;;3.82;100.00
17525;BME280;40431;52.198;9.902;2023-02-24T02:37:52;100254.09;;;3.76;100.00
17525;BME280;40431;52.198;9.902;2023-02-24T02:40:24;100258.59;;;3.75;100.00
17525;BME280;40431;52.198;9.902;2023-02-24T02:42:57;100246.88;;;3.78;100.00
17525;BME280;40431;52.198;9.902;2023-02-24T02:45:27;100243.88;;;3.85;100.00
17525;BME280;40431;52.198;9.902;2023-02-24T02:47:59;100246.75;;;3.81;100.00
17525;BME280;40431;52.198;9.902;2023-02-24T02:50:33;100237.88;;;3.79;100.00
17525;BME280;40431;52.198;9.902;2023-02-24T02:53:04;100232.28;;;3.85;100.00
17525;BME280;40431;52.198;9.902;2023-02-24T02:55:36;100226.13;;;3.83;100.00
17525;BME280;40431;52.198;9.902;2023-02-24T02:58:07;100232.28;;;3.85;100.00
17525;BME280;40431;52.198;9.902;2023-02-24T03:00:40;100225.09;;;3.85;100.00
17525;BME280;40431;52.198;9.902;2023-02-24T03:03:10;100226.16;;;3.81;100.00
17525;BME280;40431;52.198;9.902;2023-02-24T03:05:44;100224.19;;;3.87;100.00
17525;BME280;40431;52.198;9.902;2023-02-24T03:08:15;100209.97;;;3.84;100.00
17525;BME280;40431;52.198;9.902;2023-02-24T03:10:45;100209.72;;;3.91;100.00
17525;BME280;40431;52.198;9.902;2023-02-24T03:13:16;100201.78;;;3.88;100.00
17525;BME280;40431;52.198;9.902;2023-02-24T03:15:45;100207.09;;;3.89;100.00
17525;BME280;40431;52.198;9.902;2023-02-24T03:18:16;100202.84;;;3.83;100.00
17525;BME280;40431;52.198;9.902;2023-02-24T03:20:48;100196.44;;;3.88;100.00
17525;BME280;40431;52.198;9.902;2023-02-24T03:23:17;100200.22;;;3.82;100.00
17525;BME280;40431;52.198;9.902;2023-02-24T03:25:51;100194.22;;;3.75;100.00
17525;BME280;40431;52.198;9.902;2023-02-24T03:28:22;100186.97;;;3.77;100.00
17525;BME280;40431;52.198;9.902;2023-02-24T03:30:57;100175.56;;;3.72;100.00
17525;BME280;40431;52.198;9.902;2023-02-24T03:33:32;100179.13;;;3.73;100.00
17525;BME280;40431;52.198;9.902;2023-02-24T03:36:02;100170.53;;;3.64;100.00
17525;BME280;40431;52.198;9.902;2023-02-24T03:38:32;100156.91;;;3.69;100.00
17525;BME280;40431;52.198;9.902;2023-02-24T03:41:03;100158.09;;;3.62;100.00
17525;BME280;40431;52.198;9.902;2023-02-24T03:43:37;100162.63;;;3.60;100.00
17525;BME280;40431;52.198;9.902;2023-02-24T03:46:04;100157.41;;;3.57;100.00
17525;BME280;40431;52.198;9.902;2023-02-24T03:48:32;100161.94;;;3.55;100.00
17525;BME280;40431;52.198;9.902;2023-02-24T03:51:04;100156.56;;;3.55;100.00
17525;BME280;40431;52.198;9.902;2023-02-24T03:53:39;100148.72;;;3.50;100.00
17525;BME280;40431;52.198;9.902;2023-02-24T03:56:19;100152.19;;;3.52;100.00
17525;BME280;40431;52.198;9.902;2023-02-24T03:58:59;100152.25;;;3.50;100.00
17525;BME280;40431;52.198;9.902;2023-02-24T04:01:35;100147.03;;;3.47;100.00
17525;BME280;40431;52.198;9.902;2023-02-24T04:04:14;100145.06;;;3.53;100.00
17525;BME280;40431;52.198;9.902;2023-02-24T04:06:49;100145.97;;;3.51;100.00
17525;BME280;40431;52.198;9.902;2023-02-24T04:09:22;100144.06;;;3.55;100.00
17525;BME280;40431;52.198;9.902;2023-02-24T04:11:56;100139.78;;;3.49;100.00
17525;BME280;40431;52.198;9.902;2023-02-24T04:14:28;100135.59;;;3.42;100.00
17525;BME280;40431;52.198;9.902;2023-02-24T04:16:59;100139.00;;;3.47;100.00
17525;BME280;40431;52.198;9.902;2023-02-24T04:19:29;100130.31;;;3.41;100.00
17525;BME280;40431;52.198;9.902;2023-02-24T04:21:59;100137.53;;;3.39;100.00
17525;BME280;40431;52.198;9.902;2023-02-24T04:24:29;100124.31;;;3.34;100.00
17525;BME280;40431;52.198;9.902;2023-02-24T04:26:58;100131.53;;;3.32;100.00
17525;BME280;40431;52.198;9.902;2023-02-24T04:29:29;100122.56;;;3.33;100.00
17525;BME280;40431;52.198;9.902;2023-02-24T04:32:02;100123.59;;;3.29;100.00
17525;BME280;40431;52.198;9.902;2023-02-24T04:34:30;100116.72;;;3.22;100.00
17525;BME280;40431;52.198;9.902;2023-02-24T04:36:58;100120.34;;;3.21;100.00
17525;BME280;40431;52.198;9.902;2023-02-24T04:39:27;100125.53;;;3.25;100.00
17525;BME280;40431;52.198;9.902;2023-02-24T04:41:54;100120.94;;;3.29;100.00
17525;BME280;40431;52.198;9.902;2023-02-24T04:44:22;100116.44;;;3.29;100.00
17525;BME280;40431;52.198;9.902;2023-02-24T04:46:49;100115.03;;;3.19;100.00
17525;BME280;40431;52.198;9.902;2023-02-24T04:49:17;100121.28;;;3.20;100.00
17525;BME280;40431;52.198;9.902;2023-02-24T04:51:45;100117.63;;;3.22;100.00
17525;BME280;40431;52.198;9.902;2023-02-24T04:54:14;100115.16;;;3.16;100.00
17525;BME280;40431;52.198;9.902;2023-02-24T04:56:41;100112.34;;;3.19;100.00
17525;BME280;40431;52.198;9.902;2023-02-24T04:59:09;100099.19;;;3.13;100.00
17525;BME280;40431;52.198;9.902;2023-02-24T05:01:36;100096.81;;;3.05;100.00
17525;BME280;40431;52.198;9.902;2023-02-24T05:04:04;100105.75;;;3.04;100.00
17525;BME280;40431;52.198;9.902;2023-02-24T05:06:31;100096.16;;;2.98;100.00
17525;BME280;40431;52.198;9.902;2023-02-24T05:08:58;100088.19;;;2.97;100.00
17525;BME280;40431;52.198;9.902;2023-02-24T05:11:26;100089.16;;;2.94;100.00
17525;BME280;40431;52.198;9.902;2023-02-24T05:13:59;100081.25;;;2.91;100.00
17525;BME280;40431;52.198;9.902;2023-02-24T05:16:28;100075.13;;;2.88;100.00
17525;BME280;40431;52.198;9.902;2023-02-24T05:18:55;100072.22;;;2.94;100.00
17525;BME280;40431;52.198;9.902;2023-02-24T05:21:35;100063.50;;;2.89;100.00
17525;BME280;40431;52.198;9.902;2023-02-24T05:24:02;100066.22;;;2.87;100.00
17525;BME280;40431;52.198;9.902;2023-02-24T05:26:32;100058.31;;;2.84;100.00
17525;BME280;40431;52.198;9.902;2023-02-24T05:29:00;100074.56;;;2.79;100.00
17525;BME280;40431;52.198;9.902;2023-02-24T05:31:29;100066.41;;;2.82;100.00
17525;BME280;40431;52.198;9.902;2023-02-24T05:33:57;100052.88;;;2.86;100.00
17525;BME280;40431;52.198;9.902;2023-02-24T05:36:25;100052.19;;;2.80;100.00
17525;BME280;40431;52.198;9.902;2023-02-24T05:38:53;100044.91;;;2.84;97.91
17525;BME280;40431;52.198;9.902;2023-02-24T05:41:23;100031.94;;;2.73;97.64
17525;BME280;40431;52.198;9.902;2023-02-24T05:43:58;100037.94;;;2.80;96.28
17525;BME280;40431;52.198;9.902;2023-02-24T05:46:30;100033.56;;;2.77;97.11
17525;BME280;40431;52.198;9.902;2023-02-24T05:48:58;100021.00;;;2.79;96.71
17525;BME280;40431;52.198;9.902;2023-02-24T05:51:26;100021.88;;;2.80;98.11
17525;BME280;40431;52.198;9.902;2023-02-24T05:53:59;100018.25;;;2.81;98.46
17525;BME280;40431;52.198;9.902;2023-02-24T05:56:29;100008.41;;;2.81;98.79
17525;BME280;40431;52.198;9.902;2023-02-24T05:58:58;100005.88;;;2.78;97.80
17525;BME280;40431;52.198;9.902;2023-02-24T06:01:27;100000.38;;;2.81;97.98
17525;BME280;40431;52.198;9.902;2023-02-24T06:03:55;100001.44;;;2.77;96.81
17525;BME280;40431;52.198;9.902;2023-02-24T06:06:21;99994.22;;;2.79;95.62
17525;BME280;40431;52.198;9.902;2023-02-24T06:08:48;99988.97;;;2.76;95.90
17525;BME280;40431;52.198;9.902;2023-02-24T06:11:15;99982.81;;;2.74;97.44
17525;BME280;40431;52.198;9.902;2023-02-24T06:13:43;99983.75;;;2.73;97.48
17525;BME280;40431;52.198;9.902;2023-02-24T06:16:13;99987.97;;;2.79;97.30
17525;BME280;40431;52.198;9.902;2023-02-24T06:18:40;99977.34;;;2.77;98.14
17525;BME280;40431;52.198;9.902;2023-02-24T06:21:06;99977.03;;;2.85;98.88
17525;BME280;40431;52.198;9.902;2023-02-24T06:23:33;99972.69;;;2.82;100.00
17525;BME280;40431;52.198;9.902;2023-02-24T06:26:00;99971.06;;;2.78;100.00
17525;BME280;40431;52.198;9.902;2023-02-24T06:28:28;99962.81;;;2.83;100.00
17525;BME280;40431;52.198;9.902;2023-02-24T06:30:55;99965.22;;;2.91;100.00
17525;BME280;40431;52.198;9.902;2023-02-24T06:33:22;99961.84;;;2.86;100.00
17525;BME280;40431;52.198;9.902;2023-02-24T06:35:51;99947.53;;;2.87;100.00
17525;BME280;40431;52.198;9.902;2023-02-24T06:38:17;99950.13;;;2.88;100.00
17525;BME280;40431;52.198;9.902;2023-02-24T06:40:44;99939.72;;;2.80;100.00
17525;BME280;40431;52.198;9.902;2023-02-24T06:43:11;99936.31;;;2.77;100.00
17525;BME280;40431;52.198;9.902;2023-02-24T06:45:38;99934.28;;;2.83;100.00
17525;BME280;40431;52.198;9.902;2023-02-24T06:48:04;99933.44;;;2.81;100.00
17525;BME280;40431;52.198;9.902;2023-02-24T06:50:34;99926.47;;;2.77;100.00
17525;BME280;40431;52.198;9.902;2023-02-24T06:53:00;99927.03;;;2.86;100.00
17525;BME280;40431;52.198;9.902;2023-02-24T06:55:27;99922.50;;;2.88;100.00
17525;BME280;40431;52.198;9.902;2023-02-24T06:57:54;99921.69;;;2.86;100.00
17525;BME280;40431;52.198;9.902;2023-02-24T07:00:24;99917.91;;;2.91;99.35
17525;BME280;40431;52.198;9.902;2023-02-24T07:03:01;99910.91;;;2.87;98.27
17525;BME280;40431;52.198;9.902;2023-02-24T07:05:43;99903.81;;;2.86;98.04
17525;BME280;40431;52.198;9.902;2023-02-24T07:08:15;99911.91;;;2.84;97.72
17525;BME280;40431;52.198;9.902;2023-02-24T07:10:41;99905.75;;;2.82;98.63
17525;BME280;40431;52.198;9.902;2023-02-24T07:13:08;99905.91;;;2.78;98.04
17525;BME280;40431;52.198;9.902;2023-02-24T07:15:34;99895.09;;;2.81;98.49
17525;BME280;40431;52.198;9.902;2023-02-24T07:18:01;99898.56;;;2.83;97.85
17525;BME280;40431;52.198;9.902;2023-02-24T07:20:28;99893.97;;;2.87;97.17
17525;BME280;40431;52.198;9.902;2023-02-24T07:22:56;99887.75;;;2.86;97.15
17525;BME280;40431;52.198;9.902;2023-02-24T07:25:22;99888.63;;;2.87;97.33
17525;BME280;40431;52.198;9.902;2023-02-24T07:27:57;99886.00;;;2.85;95.92
17525;BME280;40431;52.198;9.902;2023-02-24T07:30:26;99874.44;;;2.84;95.62
17525;BME280;40431;52.198;9.902;2023-02-24T07:32:52;99878.72;;;2.89;95.07
17525;BME280;40431;52.198;9.902;2023-02-24T07:35:19;99869.06;;;2.84;95.99
17525;BME280;40431;52.198;9.902;2023-02-24T07:37:45;99863.59;;;2.88;95.89
17525;BME280;40431;52.198;9.902;2023-02-24T07:40:14;99867.88;;;2.92;96.55
17525;BME280;40431;52.198;9.902;2023-02-24T07:42:41;99857.53;;;2.82;96.15
17525;BME280;40431;52.198;9.902;2023-02-24T07:45:09;99854.34;;;2.95;96.36
17525;BME280;40431;52.198;9.902;2023-02-24T07:47:35;99848.22;;;2.93;96.29
17525;BME280;40431;52.198;9.902;2023-02-24T07:50:02;99840.97;;;2.95;97.44
17525;BME280;40431;52.198;9.902;2023-02-24T07:52:34;99843.53;;;2.98;97.01
17525;BME280;40431;52.198;9.902;2023-02-24T07:55:01;99827.72;;;2.92;96.16
17525;BME280;40431;52.198;9.902;2023-02-24T07:57:28;99837.28;;;2.97;96.49
17525;BME280;40431;52.198;9.902;2023-02-24T07:59:57;99822.97;;;2.98;96.03
17525;BME280;40431;52.198;9.902;2023-02-24T08:02:24;99829.78;;;3.07;95.62
17525;BME280;40431;52.198;9.902;2023-02-24T08:04:50;99818.47;;;2.99;96.38
17525;BME280;40431;52.198;9.902;2023-02-24T08:07:17;99821.84;;;3.04;95.42
17525;BME280;40431;52.198;9.902;2023-02-24T08:09:48;99807.59;;;3.04;96.10
17525;BME280;40431;52.198;9.902;2023-02-24T08:12:37;99804.91;;;3.04;96.93
17525;BME280;40431;52.198;9.902;2023-02-24T08:15:07;99807.66;;;3.02;97.35
17525;BME280;40431;52.198;9.902;2023-02-24T08:17:41;99802.31;;;3.02;97.60
17525;BME280;40431;52.198;9.902;2023-02-24T08:20:09;99791.44;;;3.05;96.12
17525;BME280;40431;52.198;9.902;2023-02-24T08:22:50;99791.44;;;3.05;94.54
17525;BME280;40431;52.198;9.902;2023-02-24T08:25:21;99786.09;;;3.05;95.13
17525;BME280;40431;52.198;9.902;2023-02-24T08:27:51;99775.63;;;2.99;94.98
17525;BME280;40431;52.198;9.902;2023-02-24T08:30:24;99773.91;;;2.98;95.50
17525;BME280;40431;52.198;9.902;2023-02-24T08:32:55;99761.44;;;2.97;96.04
17525;BME280;40431;52.198;9.902;2023-02-24T08:35:24;99763.19;;;2.98;96.00
17525;BME280;40431;52.198;9.902;2023-02-24T08:37:57;99766.66;;;3.00;95.44
17525;BME280;40431;52.198;9.902;2023-02-24T08:40:27;99759.56;;;2.99;95.21
17525;BME280;40431;52.198;9.902;2023-02-24T08:43:05;99760.22;;;3.04;95.28
17525;BME280;40431;52.198;9.902;2023-02-24T08:45:41;99746.84;;;3.04;94.83
17525;BME280;40431;52.198;9.902;2023-02-24T08:48:08;99755.69;;;3.06;94.79
17525;BME280;40431;52.198;9.902;2023-02-24T08:50:42;99745.06;;;3.05;95.20
17525;BME280;40431;52.198;9.902;2023-02-24T08:53:09;99742.16;;;3.09;95.20
17525;BME280;40431;52.198;9.902;2023-02-24T08:55:43;99737.72;;;3.08;95.69
17525;BME280;40431;52.198;9.902;2023-02-24T08:58:11;99735.88;;;3.10;96.97
17525;BME280;40431;52.198;9.902;2023-02-24T09:00:42;99733.19;;;3.10;96.90
17525;BME280;40431;52.198;9.902;2023-02-24T09:03:15;99733.97;;;3.12;97.30
17525;BME280;40431;52.198;9.902;2023-02-24T09:05:56;99729.78;;;3.07;97.26
17525;BME280;40431;52.198;9.902;2023-02-24T09:08:22;99717.19;;;3.09;96.94
17525;BME280;40431;52.198;9.902;2023-02-24T09:10:49;99724.63;;;3.02;97.17
17525;BME280;40431;52.198;9.902;2023-02-24T09:13:17;99718.19;;;3.06;98.22
17525;BME280;40431;52.198;9.902;2023-02-24T09:15:43;99715.59;;;3.05;98.53
17525;BME280;40431;52.198;9.902;2023-02-24T09:18:10;99709.34;;;3.04;99.14
17525;BME280;40431;52.198;9.902;2023-02-24T09:20:39;99711.34;;;2.99;100.00
17525;BME280;40431;52.198;9.902;2023-02-24T09:23:40;99702.31;;;3.01;100.00
17525;BME280;40431;52.198;9.902;2023-02-24T09:26:11;99698.63;;;3.04;100.00
17525;BME280;40431;52.198;9.902;2023-02-24T09:28:39;99705.69;;;2.86;100.00
17525;BME280;40431;52.198;9.902;2023-02-24T09:31:14;99702.72;;;2.72;100.00
17525;BME280;40431;52.198;9.902;2023-02-24T09:33:42;99697.59;;;2.65;100.00
17525;BME280;40431;52.198;9.902;2023-02-24T09:36:16;99692.25;;;2.65;100.00
17525;BME280;40431;52.198;9.902;2023-02-24T09:38:46;99682.53;;;2.63;100.00
17525;BME280;40431;52.198;9.902;2023-02-24T09:41:33;99685.91;;;2.68;100.00
17525;BME280;40431;52.198;9.902;2023-02-24T09:44:24;99681.47;;;2.67;100.00
17525;BME280;40431;52.198;9.902;2023-02-24T09:46:54;99668.97;;;2.67;100.00
17525;BME280;40431;52.198;9.902;2023-02-24T09:49:40;99667.03;;;2.71;100.00
17525;BME280;40431;52.198;9.902;2023-02-24T09:52:11;99664.47;;;2.68;100.00
17525;BME280;40431;52.198;9.902;2023-02-24T09:54:42;99671.19;;;2.78;100.00
17525;BME280;40431;52.198;9.902;2023-02-24T09:57:29;99657.28;;;2.70;100.00
17525;BME280;40431;52.198;9.902;2023-02-24T10:00:05;99654.59;;;2.70;100.00
17525;BME280;40431;52.198;9.902;2023-02-24T10:02:52;99646.56;;;2.70;100.00
17525;BME280;40431;52.198;9.902;2023-02-24T10:05:27;99645.97;;;2.63;100.00
17525;BME280;40431;52.198;9.902;2023-02-24T10:08:02;99637.84;;;2.65;100.00
17525;BME280;40431;52.198;9.902;2023-02-24T10:10:35;99641.31;;;2.67;100.00
17525;BME280;40431;52.198;9.902;2023-02-24T10:13:06;99631.44;;;2.69;100.00
17525;BME280;40431;52.198;9.902;2023-02-24T10:15:41;99630.63;;;2.67;100.00
17525;BME280;40431;52.198;9.902;2023-02-24T10:18:28;99617.16;;;2.68;100.00
17525;BME280;40431;52.198;9.902;2023-02-24T10:21:00;99619.81;;;2.70;100.00
17525;BME280;40431;52.198;9.902;2023-02-24T10:23:34;99609.81;;;2.74;100.00
17525;BME280;40431;52.198;9.902;2023-02-24T10:26:13;99612.28;;;2.78;100.00
17525;BME280;40431;52.198;9.902;2023-02-24T10:28:58;99609.41;;;2.83;100.00
17525;BME280;40431;52.198;9.902;2023-02-24T10:31:38;99606.94;;;2.78;100.00
17525;BME280;40431;52.198;9.902;2023-02-24T10:34:10;99588.59;;;2.69;100.00
17525;BME280;40431;52.198;9.902;2023-02-24T10:36:37;99594.88;;;2.68;100.00
17525;BME280;40431;52.198;9.902;2023-02-24T10:39:12;99594.63;;;2.74;100.00
17525;BME280;40431;52.198;9.902;2023-02-24T10:41:42;99588.34;;;2.75;100.00
17525;BME280;40431;52.198;9.902;2023-02-24T10:44:11;99594.75;;;2.71;100.00
17525;BME280;40431;52.198;9.902;2023-02-24T10:46:41;99585.66;;;2.75;100.00
17525;BME280;40431;52.198;9.902;2023-02-24T10:49:10;99576.66;;;2.76;100.00
17525;BME280;40431;52.198;9.902;2023-02-24T10:51:42;99574.97;;;2.75;100.00
17525;BME280;40431;52.198;9.902;2023-02-24T10:54:21;99562.63;;;2.71;100.00
17525;BME280;40431;52.198;9.902;2023-02-24T10:57:02;99567.84;;;2.74;100.00
17525;BME280;40431;52.198;9.902;2023-02-24T10:59:45;99560.25;;;2.65;100.00
17525;BME280;40431;52.198;9.902;2023-02-24T11:02:49;99552.47;;;2.59;100.00
17525;BME280;40431;52.198;9.902;2023-02-24T11:05:34;99538.00;;;2.63;100.00
17525;BME280;40431;52.198;9.902;2023-02-24T11:08:14;99540.16;;;2.55;100.00
17525;BME280;40431;52.198;9.902;2023-02-24T11:11:00;99525.97;;;2.53;100.00
17525;BME280;40431;52.198;9.902;2023-02-24T11:13:31;99523.44;;;2.49;100.00
17525;BME280;40431;52.198;9.902;2023-02-24T11:16:15;99522.38;;;2.54;100.00
17525;BME280;40431;52.198;9.902;2023-02-24T11:19:04;99507.78;;;2.61;100.00
17525;BME280;40431;52.198;9.902;2023-02-24T11:21:32;99511.16;;;2.64;100.00
17525;BME280;40431;52.198;9.902;2023-02-24T11:23:59;99502.22;;;2.65;100.00
17525;BME280;40431;52.198;9.902;2023-02-24T11:26:32;99489.56;;;2.69;100.00
17525;BME280;40431;52.198;9.902;2023-02-24T11:29:11;99495.66;;;2.73;100.00
17525;BME280;40431;52.198;9.902;2023-02-24T11:31:53;99483.28;;;2.70;100.00
17525;BME280;40431;52.198;9.902;2023-02-24T11:34:31;99479.88;;;2.66;100.00
17525;BME280;40431;52.198;9.902;2023-02-24T11:37:06;99464.66;;;2.67;100.00
17525;BME280;40431;52.198;9.902;2023-02-24T11:39:44;99458.53;;;2.65;100.00
17525;BME280;40431;52.198;9.902;2023-02-24T11:42:15;99445.56;;;2.56;100.00
17525;BME280;40431;52.198;9.902;2023-02-24T11:44:48;99450.91;;;2.56;100.00
17525;BME280;40431;52.198;9.902;2023-02-24T11:47:19;99431.53;;;2.50;100.00
17525;BME280;40431;52.198;9.902;2023-02-24T11:49:52;99435.66;;;2.58;100.00
17525;BME280;40431;52.198;9.902;2023-02-24T11:52:26;99428.44;;;2.60;100.00
17525;BME280;40431;52.198;9.902;2023-02-24T11:54:56;99426.69;;;2.59;100.00
17525;BME280;40431;52.198;9.902;2023-02-24T11:57:29;99410.78;;;2.56;100.00
17525;BME280;40431;52.198;9.902;2023-02-24T12:00:02;99411.13;;;2.48;100.00
17525;BME280;40431;52.198;9.902;2023-02-24T12:02:36;99405.03;;;2.44;100.00
17525;BME280;40431;52.198;9.902;2023-02-24T12:05:12;99397.81;;;2.46;100.00
17525;BME280;40431;52.198;9.902;2023-02-24T12:07:44;99393.41;;;2.45;100.00
17525;BME280;40431;52.198;9.902;2023-02-24T12:10:18;99390.59;;;2.48;100.00
17525;BME280;40431;52.198;9.902;2023-02-24T12:12:50;99382.03;;;2.40;100.00
17525;BME280;40431;52.198;9.902;2023-02-24T12:15:23;99374.75;;;2.44;100.00
17525;BME280;40431;52.198;9.902;2023-02-24T12:17:54;99385.53;;;2.42;100.00
17525;BME280;40431;52.198;9.902;2023-02-24T12:20:27;99374.16;;;2.37;100.00
17525;BME280;40431;52.198;9.902;2023-02-24T12:22:57;99370.50;;;2.40;100.00
17525;BME280;40431;52.198;9.902;2023-02-24T12:25:29;99363.63;;;2.34;100.00
17525;BME280;40431;52.198;9.902;2023-02-24T12:28:06;99359.41;;;2.28;100.00
17525;BME280;40431;52.198;9.902;2023-02-24T12:30:50;99359.31;;;2.30;100.00
17525;BME280;40431;52.198;9.902;2023-02-24T12:33:43;99357.53;;;2.30;100.00
17525;BME280;40431;52.198;9.902;2023-02-24T12:36:23;99347.84;;;2.28;100.00
17525;BME280;40431;52.198;9.902;2023-02-24T12:38:58;99353.84;;;2.33;100.00
17525;BME280;40431;52.198;9.902;2023-02-24T12:41:41;99346.75;;;2.32;100.00
17525;BME280;40431;52.198;9.902;2023-02-24T12:44:18;99338.81;;;2.30;100.00
17525;BME280;40431;52.198;9.902;2023-02-24T12:46:51;99344.25;;;2.29;100.00
17525;BME280;40431;52.198;9.902;2023-02-24T12:49:30;99334.63;;;2.25;100.00
17525;BME280;40431;52.198;9.902;2023-02-24T12:52:08;99327.66;;;2.21;100.00
17525;BME280;40431;52.198;9.902;2023-02-24T12:54:43;99331.34;;;2.18;100.00
17525;BME280;40431;52.198;9.902;2023-02-24T12:57:17;99322.31;;;2.21;100.00
17525;BME280;40431;52.198;9.902;2023-02-24T12:59:47;99333.00;;;2.21;100.00
17525;BME280;40431;52.198;9.902;2023-02-24T13:02:21;99331.50;;;2.15;100.00
17525;BME280;40431;52.198;9.902;2023-02-24T13:04:54;99313.06;;;2.09;100.00
17525;BME280;40431;52.198;9.902;2023-02-24T13:07:34;99314.19;;;2.03;100.00
17525;BME280;40431;52.198;9.902;2023-02-24T13:10:17;99309.78;;;2.02;100.00
17525;BME280;40431;52.198;9.902;2023-02-24T13:12:54;99312.34;;;2.05;100.00
17525;BME280;40431;52.198;9.902;2023-02-24T13:15:27;99300.63;;;2.08;100.00
17525;BME280;40431;52.198;9.902;2023-02-24T13:17:55;99297.88;;;2.09;100.00
17525;BME280;40431;52.198;9.902;2023-02-24T13:20:28;99293.28;;;2.13;100.00
17525;BME280;40431;52.198;9.902;2023-02-24T13:22:57;99288.78;;;2.13;100.00